createdAt,value
2023-04-01T00:05:51.204Z,93.82
2023-04-01T00:11:17.112Z,93.93
2023-04-01T00:16:41.674Z,93.75
2023-04-01T00:22:05.777Z,93.98
2023-04-01T00:27:29.651Z,93.92
2023-04-01T00:32:55.207Z,94.05
2023-04-01T00:38:20.058Z,94.07
2023-04-01T00:43:46.222Z,93.99
2023-04-01T00:49:11.018Z,94.13
2023-04-01T00:54:36.355Z,93.97
2023-04-01T01:00:01.124Z,94.02
2023-04-01T01:05:48.350Z,94.08
2023-04-01T01:11:15.724Z,93.92
2023-04-01T01:16:46.469Z,94.02
2023-04-01T01:22:31.278Z,94.02
2023-04-01T01:28:37.289Z,94.07
2023-04-01T01:34:16.667Z,94.04
2023-04-01T01:39:45.188Z,94.34
2023-04-01T01:45:13.740Z,94.51
2023-04-01T01:50:39.070Z,94.70
2023-04-01T01:56:04.192Z,94.89
2023-04-01T02:01:36.977Z,95.18
2023-04-01T02:07:17.554Z,95.16
2023-04-01T02:12:48.126Z,95.37
2023-04-01T02:18:14.603Z,95.57
2023-04-01T02:23:39.669Z,95.93
2023-04-01T02:29:07.022Z,96.11
2023-04-01T02:34:31.053Z,96.49
2023-04-01T02:40:01.797Z,96.87
2023-04-01T02:45:27.061Z,97.01
2023-04-01T02:50:51.417Z,97.22
2023-04-01T02:56:16.212Z,97.47
2023-04-01T03:01:40.116Z,97.60
2023-04-01T03:07:04.086Z,97.66
2023-04-01T03:12:28.835Z,97.83
2023-04-01T03:17:53.619Z,97.93
2023-04-01T03:23:20.639Z,98.01
2023-04-01T03:28:44.646Z,98.30
2023-04-01T03:34:09.188Z,98.26
2023-04-01T03:39:33.509Z,98.56
2023-04-01T03:44:57.630Z,98.61
2023-04-01T03:50:22.546Z,98.69
2023-04-01T03:55:48.003Z,98.75
2023-04-01T04:01:22.181Z,99.02
2023-04-01T04:06:49.314Z,99.04
2023-04-01T04:12:14.032Z,99.08
2023-04-01T04:17:38.220Z,99.39
2023-04-01T04:23:02.832Z,99.59
2023-04-01T04:28:28.501Z,99.58
2023-04-01T04:33:54.444Z,99.81
2023-04-01T04:39:18.538Z,99.94
2023-04-01T04:44:42.879Z,99.97
2023-04-01T04:50:07.825Z,99.97
2023-04-01T04:55:34.669Z,99.99
2023-04-01T05:01:18.800Z,100.00
2023-04-01T05:06:46.060Z,100.00
2023-04-01T05:12:11.218Z,100.00
2023-04-01T05:17:55.421Z,100.00
2023-04-01T05:23:20.182Z,100.00
2023-04-01T05:28:44.710Z,100.00
2023-04-01T05:34:09.357Z,100.00
2023-04-01T05:39:33.353Z,100.00
2023-04-01T05:44:58.356Z,100.00
2023-04-01T05:50:48.423Z,100.00
2023-04-01T05:56:13.544Z,100.00
2023-04-01T06:01:40.734Z,100.00
2023-04-01T06:07:19.422Z,100.00
2023-04-01T06:12:54.699Z,100.00
2023-04-01T06:18:37.381Z,99.96
2023-04-01T06:24:38.810Z,99.91
2023-04-01T06:30:26.972Z,99.68
2023-04-01T06:36:14.457Z,99.36
2023-04-01T06:41:51.601Z,99.13
2023-04-01T06:47:31.017Z,99.03
2023-04-01T06:53:38.096Z,98.63
2023-04-01T06:59:41.863Z,98.47
2023-04-01T07:05:06.755Z,98.22
2023-04-01T07:10:47.960Z,98.11
2023-04-01T07:17:03.275Z,97.92
2023-04-01T07:22:45.924Z,97.80
2023-04-01T07:28:35.530Z,97.58
2023-04-01T07:34:51.328Z,97.42
2023-04-01T07:40:40.597Z,97.40
2023-04-01T07:46:38.948Z,97.20
2023-04-01T07:52:37.194Z,96.75
2023-04-01T07:58:18.824Z,96.31
2023-04-01T08:03:49.364Z,95.27
2023-04-01T08:09:29.112Z,94.04
2023-04-01T08:15:28.815Z,92.72
2023-04-01T08:21:03.989Z,92.03
2023-04-01T08:26:38.613Z,91.16
2023-04-01T08:32:18.366Z,90.13
2023-04-01T08:37:46.961Z,88.71
2023-04-01T08:43:38.166Z,88.64
2023-04-01T08:49:23.755Z,87.95
2023-04-01T08:55:04.595Z,87.15
2023-04-01T09:00:57.617Z,86.00
2023-04-01T09:06:39.565Z,85.66
2023-04-01T09:12:49.728Z,85.95
2023-04-01T09:18:25.362Z,85.08
2023-04-01T09:24:13.130Z,84.47
2023-04-01T09:29:49.654Z,83.86
2023-04-01T09:35:29.617Z,83.33
2023-04-01T09:41:23.376Z,82.17
2023-04-01T09:47:11.306Z,80.29
2023-04-01T09:53:05.355Z,79.57
2023-04-01T09:58:55.905Z,77.80
2023-04-01T10:04:57.596Z,77.34
2023-04-01T10:10:43.867Z,76.07
2023-04-01T10:16:27.591Z,74.79
2023-04-01T10:22:25.093Z,74.71
2023-04-01T10:28:16.500Z,74.87
2023-04-01T10:35:18.166Z,74.81
2023-04-01T10:41:57.062Z,75.03
2023-04-01T10:48:25.919Z,76.82
2023-04-01T10:54:44.442Z,77.34
2023-04-01T11:01:09.304Z,77.16
2023-04-01T11:07:44.014Z,77.33
2023-04-01T11:13:29.556Z,76.70
2023-04-01T11:19:12.404Z,76.37
2023-04-01T11:25:00.997Z,77.61
2023-04-01T11:31:04.489Z,77.11
2023-04-01T11:37:01.352Z,75.90
2023-04-01T11:42:51.710Z,74.51
2023-04-01T11:48:52.221Z,73.55
2023-04-01T11:54:52.043Z,73.28
2023-04-01T12:00:47.013Z,73.15
2023-04-01T12:06:44.977Z,72.00
2023-04-01T12:12:22.340Z,71.75
2023-04-01T12:18:25.013Z,71.57
2023-04-01T12:24:35.130Z,71.16
2023-04-01T12:30:23.390Z,70.53
2023-04-01T12:35:57.367Z,70.15
2023-04-01T12:41:46.247Z,67.69
2023-04-01T12:47:34.665Z,67.67
2023-04-01T12:53:28.742Z,65.73
2023-04-01T12:59:19.317Z,66.92
2023-04-01T13:05:12.211Z,66.54
2023-04-01T13:10:59.440Z,63.77
2023-04-01T13:16:58.767Z,63.21
2023-04-01T13:22:47.192Z,63.06
2023-04-01T13:28:22.570Z,61.99
2023-04-01T13:34:01.691Z,61.60
2023-04-01T13:39:50.109Z,61.08
2023-04-01T13:45:27.865Z,60.75
2023-04-01T13:51:03.775Z,58.45
2023-04-01T13:57:20.479Z,57.72
2023-04-01T14:02:55.884Z,56.43
2023-04-01T14:08:53.269Z,58.87
2023-04-01T14:14:25.702Z,60.13
2023-04-01T14:20:11.814Z,62.65
2023-04-01T14:25:56.271Z,65.65
2023-04-01T14:31:33.063Z,67.77
2023-04-01T14:37:20.361Z,70.14
2023-04-01T14:43:17.167Z,70.26
2023-04-01T14:48:45.025Z,70.15
2023-04-01T14:54:15.291Z,70.15
2023-04-01T15:00:07.902Z,71.11
2023-04-01T15:05:53.897Z,71.39
2023-04-01T15:11:53.921Z,71.72
2023-04-01T15:17:31.400Z,72.75
2023-04-01T15:23:22.651Z,73.52
2023-04-01T15:29:05.502Z,74.84
2023-04-01T15:35:07.054Z,74.76
2023-04-01T15:40:37.701Z,75.95
2023-04-01T15:46:40.245Z,76.56
2023-04-01T15:52:16.871Z,78.15
2023-04-01T15:57:53.789Z,79.73
2023-04-01T16:03:31.361Z,80.99
2023-04-01T16:09:04.140Z,82.17
2023-04-01T16:14:46.473Z,83.08
2023-04-01T16:20:11.991Z,82.38
2023-04-01T16:25:55.128Z,82.25
2023-04-01T16:31:47.801Z,81.80
2023-04-01T16:37:23.614Z,81.58
2023-04-01T16:43:07.438Z,82.47
2023-04-01T16:48:54.421Z,82.61
2023-04-01T16:54:40.651Z,81.81
2023-04-01T17:00:29.361Z,82.85
2023-04-01T17:06:29.387Z,83.35
2023-04-01T17:12:32.437Z,83.92
2023-04-01T17:17:56.659Z,84.13
2023-04-01T17:23:54.611Z,84.05
2023-04-01T17:29:57.938Z,84.20
2023-04-01T17:35:36.432Z,84.25
2023-04-01T17:41:18.989Z,84.52
2023-04-01T17:46:47.292Z,84.37
2023-04-01T17:52:21.295Z,84.17
2023-04-01T17:58:00.197Z,84.17
2023-04-01T18:03:37.618Z,84.00
2023-04-01T18:09:45.593Z,84.27
2023-04-01T18:15:28.457Z,84.06
2023-04-01T18:21:20.166Z,84.81
2023-04-01T18:26:52.732Z,86.36
2023-04-01T18:32:48.303Z,86.72
2023-04-01T18:38:39.532Z,87.78
2023-04-01T18:44:35.969Z,87.80
2023-04-01T18:50:18.541Z,87.92
2023-04-01T18:55:57.216Z,88.20
2023-04-01T19:01:47.310Z,88.44
2023-04-01T19:07:29.965Z,88.42
2023-04-01T19:13:14.776Z,88.41
2023-04-01T19:19:04.299Z,88.51
2023-04-01T19:24:55.340Z,88.25
2023-04-01T19:30:48.479Z,87.92
2023-04-01T19:36:25.906Z,88.44
2023-04-01T19:42:04.884Z,89.26
2023-04-01T19:47:59.418Z,89.66
2023-04-01T19:53:37.845Z,90.19
2023-04-01T19:59:15.406Z,90.20
2023-04-01T20:04:49.762Z,90.42
2023-04-01T20:10:44.925Z,90.55
2023-04-01T20:16:12.153Z,90.65
2023-04-01T20:21:39.860Z,90.79
2023-04-01T20:27:34.777Z,91.00
2023-04-01T20:33:17.313Z,91.07
2023-04-01T20:39:12.666Z,91.36
2023-04-01T20:44:49.848Z,91.37
2023-04-01T20:50:37.637Z,91.46
2023-04-01T20:56:49.552Z,91.38
2023-04-01T21:02:31.053Z,91.12
2023-04-01T21:08:42.165Z,90.90
2023-04-01T21:14:32.926Z,91.58
2023-04-01T21:20:27.854Z,91.95
2023-04-01T21:26:24.037Z,92.29
2023-04-01T21:32:07.500Z,92.89
2023-04-01T21:37:55.871Z,92.77
2023-04-01T21:43:40.269Z,92.41
2023-04-01T21:49:31.726Z,92.31
2023-04-01T21:55:08.787Z,92.53
2023-04-01T22:00:51.015Z,92.84
2023-04-01T22:06:40.143Z,93.00
2023-04-01T22:12:42.145Z,93.16
2023-04-01T22:18:23.461Z,93.04
2023-04-01T22:24:12.976Z,93.07
2023-04-01T22:29:48.529Z,93.43
2023-04-01T22:35:45.754Z,93.80
2023-04-01T22:41:43.040Z,93.54
2023-04-01T22:47:21.604Z,93.78
2023-04-01T22:52:54.149Z,93.67
2023-04-01T22:58:35.502Z,93.00
2023-04-01T23:04:05.047Z,93.04
2023-04-01T23:09:34.641Z,93.40
2023-04-01T23:15:03.469Z,93.65
2023-04-01T23:20:52.179Z,93.33
2023-04-01T23:26:41.680Z,93.57
2023-04-01T23:32:06.024Z,93.79
2023-04-01T23:37:34.965Z,93.33
2023-04-01T23:42:59.277Z,93.09
2023-04-01T23:48:30.760Z,93.00
2023-04-01T23:54:20.428Z,93.11
2023-04-01T23:59:45.174Z,93.54
